Time;durP1;ratioP1;P1;durP2;ratioP2;P2;SDS_P1;SDS_P2;PMS_P1;PMS_P2;Temp;Humidity;BMP_temperature;BMP_pressure;BME280_temperature;BME280_humidity;BME280_pressure;Samples;Min_cycle;Max_cycle;Signal;HPM_P1;HPM_P2
2023/10/01 00:01:40;;;;;;;9.52;5.80;;;;;;;;;;7370431;19;20011;-67
2023/10/01 00:04:07;;;;;;;11.90;6.05;;;;;;;;;;7369591;19;20034;-67
2023/10/01 00:06:34;;;;;;;11.50;5.45;;;;;;;;;;7381035;19;20641;-68
2023/10/01 00:09:00;;;;;;;11.63;5.85;;;;;;;;;;7391558;19;20003;-68
2023/10/01 00:11:27;;;;;;;12.00;6.90;;;;;;;;;;7369759;19;20013;-67
2023/10/01 00:13:52;;;;;;;12.95;6.30;;;;;;;;;;7368759;19;20343;-67
2023/10/01 00:16:17;;;;;;;11.52;6.32;;;;;;;;;;7370283;19;21096;-67
2023/10/01 00:18:43;;;;;;;12.18;6.07;;;;;;;;;;7368915;19;20492;-66
2023/10/01 00:21:08;;;;;;;11.35;5.55;;;;;;;;;;7390425;19;20003;-67
2023/10/01 00:23:33;;;;;;;13.65;6.10;;;;;;;;;;7368337;19;20019;-66
2023/10/01 00:25:59;;;;;;;10.98;5.95;;;;;;;;;;7370001;19;20039;-67
2023/10/01 00:28:24;;;;;;;12.90;6.22;;;;;;;;;;7369859;19;20054;-67
2023/10/01 00:30:49;;;;;;;13.10;6.30;;;;;;;;;;7368955;19;20003;-66
2023/10/01 00:33:15;;;;;;;16.65;6.45;;;;;;;;;;7386243;19;20006;-68
2023/10/01 00:35:41;;;;;;;10.30;6.15;;;;;;;;;;7366524;19;20531;-67
2023/10/01 00:38:07;;;;;;;13.20;6.25;;;;;;;;;;7367018;19;20419;-66
2023/10/01 00:40:33;;;;;;;9.82;5.57;;;;;;;;;;7367055;19;20373;-69
2023/10/01 00:42:58;;;;;;;12.10;6.88;;;;;;;;;;7365351;19;20010;-67
2023/10/01 00:45:23;;;;;;;10.50;5.75;;;;;;;;;;7388764;19;20006;-66
2023/10/01 00:47:50;;;;;;;11.43;6.18;;;;;;;;;;7366855;19;20045;-66
2023/10/01 00:50:21;;;;;;;12.55;5.55;;;;;;;;;;7368574;19;20014;-66
2023/10/01 00:52:49;;;;;;;9.57;5.35;;;;;;;;;;7368147;19;20489;-66
2023/10/01 00:55:16;;;;;;;11.90;5.82;;;;;;;;;;7368368;19;20010;-67
2023/10/01 00:57:42;;;;;;;9.77;5.68;;;;;;;;;;7368803;19;20357;-67
2023/10/01 01:00:09;;;;;;;11.32;5.68;;;;;;;;;;7388968;19;20006;-67
2023/10/01 01:02:38;;;;;;;10.93;6.38;;;;;;;;;;7367125;19;20013;-66
2023/10/01 01:05:20;;;;;;;9.68;5.53;;;;;;;;;;7369729;19;20127;-67
2023/10/01 01:07:47;;;;;;;11.50;5.60;;;;;;;;;;7370369;19;20019;-67
2023/10/01 01:10:16;;;;;;;11.52;5.65;;;;;;;;;;7372174;19;20014;-67
2023/10/01 01:12:45;;;;;;;10.60;5.20;;;;;;;;;;7378112;19;20471;-67
2023/10/01 01:15:13;;;;;;;12.88;6.38;;;;;;;;;;7396850;19;20024;-65
2023/10/01 01:17:40;;;;;;;13.05;6.38;;;;;;;;;;7375316;19;20014;-66
2023/10/01 01:20:09;;;;;;;13.90;6.85;;;;;;;;;;7369707;19;20023;-67
2023/10/01 01:22:36;;;;;;;11.05;6.13;;;;;;;;;;7367672;19;20006;-67
2023/10/01 01:25:10;;;;;;;12.35;5.97;;;;;;;;;;7367989;19;20030;-67
2023/10/01 01:27:40;;;;;;;11.70;5.57;;;;;;;;;;7368622;19;20010;-71
2023/10/01 01:30:09;;;;;;;13.27;5.90;;;;;;;;;;7389518;19;20032;-67
2023/10/01 01:32:36;;;;;;;13.00;6.40;;;;;;;;;;7366090;19;20031;-67
2023/10/01 01:35:04;;;;;;;14.63;6.40;;;;;;;;;;7368188;19;20022;-67
2023/10/01 01:37:36;;;;;;;15.35;6.10;;;;;;;;;;7367357;19;20031;-67
2023/10/01 01:40:09;;;;;;;12.20;6.40;;;;;;;;;;7368437;19;20003;-67
2023/10/01 01:42:34;;;;;;;11.70;5.85;;;;;;;;;;7366901;19;20011;-67
2023/10/01 01:47:44;;;;;;;13.35;5.60;;;;;;;;;;7367426;19;20422;-67
2023/10/01 01:50:28;;;;;;;10.13;5.75;;;;;;;;;;7367205;19;20010;-66
2023/10/01 01:52:57;;;;;;;12.50;6.28;;;;;;;;;;7367394;19;20027;-67
2023/10/01 01:55:27;;;;;;;12.38;5.70;;;;;;;;;;7369251;19;20038;-66
2023/10/01 01:58:06;;;;;;;12.60;6.10;;;;;;;;;;7373252;19;20074;-66
2023/10/01 02:00:34;;;;;;;16.27;6.40;;;;;;;;;;7389948;19;20010;-66
2023/10/01 02:03:02;;;;;;;10.13;5.65;;;;;;;;;;7394105;19;20030;-65
2023/10/01 02:05:28;;;;;;;11.38;5.60;;;;;;;;;;7373286;19;20011;-66
2023/10/01 02:07:54;;;;;;;13.50;6.20;;;;;;;;;;7373207;19;20010;-67
2023/10/01 02:10:20;;;;;;;14.30;6.18;;;;;;;;;;7372774;19;20356;-67
2023/10/01 02:12:47;;;;;;;17.23;6.40;;;;;;;;;;7372353;19;20412;-66
2023/10/01 02:15:13;;;;;;;10.40;5.47;;;;;;;;;;7393020;19;20039;-67
2023/10/01 02:17:39;;;;;;;12.07;6.13;;;;;;;;;;7374092;19;20018;-66
2023/10/01 02:20:11;;;;;;;10.65;5.68;;;;;;;;;;7373993;19;20027;-67
2023/10/01 02:22:36;;;;;;;13.77;6.63;;;;;;;;;;7373326;19;20504;-68
2023/10/01 02:25:04;;;;;;;13.60;6.68;;;;;;;;;;7372470;19;20030;-68
2023/10/01 02:27:29;;;;;;;11.73;6.05;;;;;;;;;;7395966;19;20046;-67
2023/10/01 02:30:14;;;;;;;13.27;5.90;;;;;;;;;;7372717;19;20069;-68
2023/10/01 02:35:36;;;;;;;12.63;5.85;;;;;;;;;;7370976;19;20038;-67
2023/10/01 02:38:05;;;;;;;13.65;5.68;;;;;;;;;;7371425;19;20006;-67
2023/10/01 02:40:36;;;;;;;13.52;6.20;;;;;;;;;;7371263;19;20528;-67
2023/10/01 02:43:08;;;;;;;12.57;6.03;;;;;;;;;;7369817;19;20015;-66
2023/10/01 02:45:35;;;;;;;12.75;6.68;;;;;;;;;;7371161;19;20010;-66
2023/10/01 02:48:18;;;;;;;12.55;7.10;;;;;;;;;;7392394;19;20009;-66
2023/10/01 02:50:52;;;;;;;14.88;6.63;;;;;;;;;;7372276;19;20595;-66
2023/10/01 02:53:25;;;;;;;12.05;7.20;;;;;;;;;;7372559;19;20011;-68
2023/10/01 02:55:51;;;;;;;13.25;6.85;;;;;;;;;;7372848;19;20006;-67
2023/10/01 02:58:20;;;;;;;12.18;6.47;;;;;;;;;;7373146;19;20484;-67
2023/10/01 03:00:46;;;;;;;13.15;6.80;;;;;;;;;;7372111;19;20451;-66
2023/10/01 03:03:16;;;;;;;12.60;6.78;;;;;;;;;;7392574;19;20018;-66
2023/10/01 03:05:44;;;;;;;14.67;6.90;;;;;;;;;;7372092;19;20010;-67
2023/10/01 03:08:40;;;;;;;15.95;7.63;;;;;;;;;;7372797;19;20792;-67
2023/10/01 03:10:57;;;;;;;15.60;7.22;;;;;;;;;;7371989;19;20029;-67
2023/10/01 03:13:30;;;;;;;13.60;7.22;;;;;;;;;;7370624;19;20708;-66
2023/10/01 03:19:13;;;;;;;15.15;7.40;;;;;;;;;;7369288;19;20044;-67
2023/10/01 03:24:25;;;;;;;14.27;7.38;;;;;;;;;;7392842;19;20013;-67
2023/10/01 03:26:51;;;;;;;17.52;8.55;;;;;;;;;;7371296;19;20022;-68
2023/10/01 03:29:19;;;;;;;18.95;7.60;;;;;;;;;;7371398;19;20015;-66
2023/10/01 03:31:46;;;;;;;12.88;7.55;;;;;;;;;;7370739;19;20421;-66
2023/10/01 03:34:28;;;;;;;13.60;7.43;;;;;;;;;;7370561;19;20024;-67
2023/10/01 03:37:00;;;;;;;13.63;7.47;;;;;;;;;;7371026;19;20027;-67
2023/10/01 03:39:28;;;;;;;16.33;7.80;;;;;;;;;;7393359;19;20006;-68
2023/10/01 03:42:13;;;;;;;15.55;7.70;;;;;;;;;;7369287;19;20011;-67
2023/10/01 03:47:23;;;;;;;14.40;6.55;;;;;;;;;;7368326;19;20415;-67
2023/10/01 03:49:54;;;;;;;13.38;7.43;;;;;;;;;;7376690;19;20006;-67
2023/10/01 03:52:20;;;;;;;18.00;8.60;;;;;;;;;;7383571;19;20065;-67
2023/10/01 03:57:30;;;;;;;14.02;7.15;;;;;;;;;;7392161;19;20020;-66
2023/10/01 03:59:57;;;;;;;17.55;8.02;;;;;;;;;;7369212;19;19998;-66
2023/10/01 04:05:22;;;;;;;14.30;7.55;;;;;;;;;;7371424;19;20017;-66
2023/10/01 04:07:49;;;;;;;15.68;8.30;;;;;;;;;;7368834;19;20006;-67
2023/10/01 04:12:58;;;;;;;19.10;8.90;;;;;;;;;;7366778;19;20014;-67
2023/10/01 04:15:29;;;;;;;17.35;8.65;;;;;;;;;;7390549;19;20006;-67
2023/10/01 04:23:32;;;;;;;14.02;7.72;;;;;;;;;;7366573;19;20010;-66
2023/10/01 04:26:04;;;;;;;19.83;9.43;;;;;;;;;;7369226;19;20119;-67
2023/10/01 04:28:31;;;;;;;17.45;8.20;;;;;;;;;;7369230;19;20595;-67
2023/10/01 04:30:56;;;;;;;15.95;8.18;;;;;;;;;;7369239;19;20006;-67
2023/10/01 04:33:24;;;;;;;17.33;8.68;;;;;;;;;;7388538;19;19994;-67
2023/10/01 04:35:58;;;;;;;15.75;8.13;;;;;;;;;;7369103;19;20006;-67
2023/10/01 04:38:32;;;;;;;16.45;8.40;;;;;;;;;;7368635;19;20190;-67
2023/10/01 04:40:59;;;;;;;16.77;8.70;;;;;;;;;;7368870;19;20014;-69
2023/10/01 04:43:26;;;;;;;16.00;8.10;;;;;;;;;;7366875;19;20017;-66
2023/10/01 04:45:52;;;;;;;16.15;7.13;;;;;;;;;;7369525;19;20011;-66
2023/10/01 04:48:25;;;;;;;15.75;7.63;;;;;;;;;;7390964;19;20002;-67
2023/10/01 04:50:55;;;;;;;16.65;7.90;;;;;;;;;;7368948;19;20010;-66
2023/10/01 04:53:21;;;;;;;12.43;7.53;;;;;;;;;;7367998;19;20006;-69
2023/10/01 04:56:06;;;;;;;13.60;8.15;;;;;;;;;;7368783;19;20034;-68
2023/10/01 04:58:36;;;;;;;16.08;8.13;;;;;;;;;;7369776;19;20002;-67
2023/10/01 05:01:05;;;;;;;13.35;7.55;;;;;;;;;;7370981;19;20006;-65
2023/10/01 05:03:38;;;;;;;16.20;8.10;;;;;;;;;;7392340;19;20520;-66
2023/10/01 05:06:07;;;;;;;14.00;7.70;;;;;;;;;;7374492;19;20002;-66
2023/10/01 05:08:38;;;;;;;17.48;8.27;;;;;;;;;;7375948;19;19999;-66
2023/10/01 05:11:04;;;;;;;21.10;9.40;;;;;;;;;;7371654;19;20006;-67
2023/10/01 05:13:31;;;;;;;16.02;8.77;;;;;;;;;;7367425;19;20372;-67
2023/10/01 05:15:56;;;;;;;18.73;9.10;;;;;;;;;;7368752;19;20023;-67
2023/10/01 05:18:28;;;;;;;22.17;9.68;;;;;;;;;;7390470;19;20002;-67
2023/10/01 05:20:58;;;;;;;17.17;9.23;;;;;;;;;;7368483;19;20460;-67
2023/10/01 05:23:27;;;;;;;16.65;9.25;;;;;;;;;;7367003;19;20022;-67
2023/10/01 05:25:52;;;;;;;19.23;9.88;;;;;;;;;;7367518;19;19999;-67
2023/10/01 05:28:24;;;;;;;24.13;10.35;;;;;;;;;;7368625;19;20539;-67
2023/10/01 05:30:57;;;;;;;19.85;9.93;;;;;;;;;;7368676;19;20003;-67
2023/10/01 05:33:24;;;;;;;19.58;9.38;;;;;;;;;;7388277;19;20029;-68
2023/10/01 05:35:54;;;;;;;18.25;9.38;;;;;;;;;;7365501;19;20073;-67
2023/10/01 05:38:20;;;;;;;17.40;8.85;;;;;;;;;;7368758;19;20007;-67
2023/10/01 05:40:52;;;;;;;18.77;8.73;;;;;;;;;;7367570;19;20023;-67
2023/10/01 05:43:18;;;;;;;14.88;8.50;;;;;;;;;;7366833;19;20463;-67
2023/10/01 05:45:50;;;;;;;19.80;8.98;;;;;;;;;;7367708;19;20082;-67
2023/10/01 05:48:19;;;;;;;18.95;8.50;;;;;;;;;;7393242;19;20023;-67
2023/10/01 05:50:47;;;;;;;14.10;7.68;;;;;;;;;;7376641;19;20394;-67
2023/10/01 05:53:18;;;;;;;14.48;7.90;;;;;;;;;;7375439;19;20010;-67
2023/10/01 05:55:44;;;;;;;15.82;7.30;;;;;;;;;;7366429;19;20027;-68
2023/10/01 05:58:13;;;;;;;12.45;7.30;;;;;;;;;;7367063;19;20010;-67
2023/10/01 06:00:45;;;;;;;14.82;8.27;;;;;;;;;;7367078;19;20074;-67
2023/10/01 06:03:15;;;;;;;18.15;7.63;;;;;;;;;;7388219;19;20022;-67
2023/10/01 06:05:46;;;;;;;15.70;8.05;;;;;;;;;;7366239;19;20049;-65
2023/10/01 06:08:15;;;;;;;12.77;7.45;;;;;;;;;;7366622;19;20002;-67
2023/10/01 06:11:05;;;;;;;15.60;7.47;;;;;;;;;;7367302;19;20034;-67
2023/10/01 06:13:38;;;;;;;18.35;7.72;;;;;;;;;;7374085;19;20058;-67
2023/10/01 06:16:15;;;;;;;13.35;7.68;;;;;;;;;;7370728;19;20642;-67
2023/10/01 06:18:51;;;;;;;13.70;7.93;;;;;;;;;;7368548;19;20006;-67
2023/10/01 06:21:20;;;;;;;13.25;7.60;;;;;;;;;;7387272;19;20007;-67
2023/10/01 06:23:49;;;;;;;18.77;8.40;;;;;;;;;;7365126;19;20374;-66
2023/10/01 06:26:16;;;;;;;15.85;8.80;;;;;;;;;;7367763;19;20436;-65
2023/10/01 06:28:41;;;;;;;20.48;9.35;;;;;;;;;;7367416;19;20028;-68
2023/10/01 06:31:06;;;;;;;17.95;9.80;;;;;;;;;;7365028;19;20436;-67
2023/10/01 06:33:35;;;;;;;19.58;8.73;;;;;;;;;;7377106;19;20662;-67
2023/10/01 06:36:16;;;;;;;15.45;8.30;;;;;;;;;;7386366;19;20046;-67
2023/10/01 06:38:47;;;;;;;17.10;8.82;;;;;;;;;;7364081;19;20014;-67
2023/10/01 06:41:13;;;;;;;;;;;;;;;;;;7365012;19;20508;-67
2023/10/01 06:43:48;;;;;;;17.95;8.85;;;;;;;;;;7363475;19;19922;-66
2023/10/01 06:46:22;;;;;;;17.20;9.52;;;;;;;;;;7365424;19;20017;-67
2023/10/01 06:48:51;;;;;;;17.63;8.35;;;;;;;;;;7372132;19;20017;-65
2023/10/01 06:51:25;;;;;;;17.58;8.88;;;;;;;;;;7393456;19;19998;-66
2023/10/01 06:54:00;;;;;;;19.38;8.45;;;;;;;;;;7370217;19;20029;-67
2023/10/01 06:56:29;;;;;;;15.00;7.82;;;;;;;;;;7364739;19;20014;-65
2023/10/01 07:01:42;;;;;;;14.93;8.65;;;;;;;;;;7366233;19;20454;-65
2023/10/01 07:04:11;;;;;;;16.27;8.18;;;;;;;;;;7369402;19;20007;-67
2023/10/01 07:06:37;;;;;;;15.02;8.82;;;;;;;;;;7367414;19;20033;-65
2023/10/01 07:09:06;;;;;;;14.18;7.88;;;;;;;;;;7388626;19;20006;-67
2023/10/01 07:11:34;;;;;;;12.82;7.80;;;;;;;;;;7366098;19;20006;-66
2023/10/01 07:14:02;;;;;;;14.13;6.72;;;;;;;;;;7368630;19;20472;-67
2023/10/01 07:16:36;;;;;;;13.75;7.43;;;;;;;;;;7368437;19;20007;-67
2023/10/01 07:19:05;;;;;;;15.75;7.40;;;;;;;;;;7369441;19;20360;-66
2023/10/01 07:21:33;;;;;;;14.27;7.43;;;;;;;;;;7391364;19;20030;-67
2023/10/01 07:24:00;;;;;;;14.43;7.25;;;;;;;;;;7366440;19;20014;-70
2023/10/01 07:26:28;;;;;;;13.13;7.30;;;;;;;;;;7369177;19;20031;-67
2023/10/01 07:28:56;;;;;;;13.07;6.88;;;;;;;;;;7367554;19;20010;-69
2023/10/01 07:31:24;;;;;;;12.15;6.88;;;;;;;;;;7368561;19;20006;-65
2023/10/01 07:33:53;;;;;;;13.90;6.22;;;;;;;;;;7363962;19;20023;-65
2023/10/01 07:36:19;;;;;;;12.13;7.35;;;;;;;;;;7391568;19;20449;-65
2023/10/01 07:38:48;;;;;;;14.45;6.88;;;;;;;;;;7366959;19;20437;-65
2023/10/01 07:41:17;;;;;;;10.63;6.07;;;;;;;;;;7366830;19;20011;-64
2023/10/01 07:43:43;;;;;;;11.00;6.85;;;;;;;;;;7365547;19;20005;-64
2023/10/01 07:46:08;;;;;;;13.70;8.07;;;;;;;;;;7367962;19;20011;-65
2023/10/01 07:48:35;;;;;;;13.48;6.88;;;;;;;;;;7367390;19;20017;-65
2023/10/01 07:51:03;;;;;;;13.27;6.78;;;;;;;;;;7390656;19;20330;-66
2023/10/01 07:53:32;;;;;;;11.05;6.10;;;;;;;;;;7363787;19;20017;-65
2023/10/01 07:56:07;;;;;;;12.03;6.97;;;;;;;;;;7366600;19;20110;-66
2023/10/01 07:58:45;;;;;;;14.85;6.40;;;;;;;;;;7363544;19;20014;-66
2023/10/01 08:03:56;;;;;;;14.13;7.55;;;;;;;;;;7366993;19;20025;-66
2023/10/01 08:06:29;;;;;;;13.68;6.63;;;;;;;;;;7388345;19;20683;-66
2023/10/01 08:09:00;;;;;;;13.77;7.13;;;;;;;;;;7368874;19;20006;-66
2023/10/01 08:14:11;;;;;;;13.52;7.45;;;;;;;;;;7368434;19;20020;-65
2023/10/01 08:16:48;;;;;;;14.63;7.55;;;;;;;;;;7372809;19;20014;-65
2023/10/01 08:19:20;;;;;;;12.85;7.10;;;;;;;;;;7372830;19;20469;-66
2023/10/01 08:21:54;;;;;;;14.32;6.47;;;;;;;;;;7373916;19;20010;-66
2023/10/01 08:24:20;;;;;;;10.38;6.45;;;;;;;;;;7389992;19;20473;-66
2023/10/01 08:27:12;;;;;;;14.18;6.45;;;;;;;;;;7369282;19;20010;-66
2023/10/01 08:29:59;;;;;;;11.73;6.50;;;;;;;;;;7368631;19;20007;-66
2023/10/01 08:32:31;;;;;;;12.98;6.88;;;;;;;;;;7366652;19;20532;-65
2023/10/01 08:35:03;;;;;;;11.30;7.03;;;;;;;;;;7367827;19;20011;-67
2023/10/01 08:37:37;;;;;;;13.73;6.75;;;;;;;;;;7368588;19;20388;-66
2023/10/01 08:40:17;;;;;;;12.13;7.03;;;;;;;;;;7368776;19;20010;-66
2023/10/01 08:42:47;;;;;;;13.20;7.47;;;;;;;;;;7368779;19;20048;-66
2023/10/01 08:45:17;;;;;;;14.55;7.38;;;;;;;;;;7390583;19;20013;-65
2023/10/01 08:47:45;;;;;;;12.23;6.93;;;;;;;;;;7368586;19;20041;-66
2023/10/01 08:52:58;;;;;;;13.30;7.28;;;;;;;;;;7367687;19;20073;-65
2023/10/01 08:55:39;;;;;;;;;;;;;;;;;;7367513;19;20431;-62
2023/10/01 08:58:24;;;;;;;11.90;6.93;;;;;;;;;;7373155;19;19929;-62
2023/10/01 09:00:53;;;;;;;13.80;6.65;;;;;;;;;;7380764;19;20005;-60
2023/10/01 09:03:28;;;;;;;12.40;7.32;;;;;;;;;;7398292;19;20014;-64
2023/10/01 09:06:02;;;;;;;13.57;6.88;;;;;;;;;;7358537;19;20437;-65
2023/10/01 09:08:54;;;;;;;12.13;5.70;;;;;;;;;;7362427;19;20073;-65
2023/10/01 09:11:14;;;;;;;11.63;6.05;;;;;;;;;;7362795;19;20010;-64
2023/10/01 09:13:46;;;;;;;10.20;6.07;;;;;;;;;;7364480;19;20010;-62
2023/10/01 09:16:12;;;;;;;14.18;6.35;;;;;;;;;;7362342;19;20361;-63
2023/10/01 09:19:30;;;;;;;12.00;5.70;;;;;;;;;;7364935;19;20002;-63
2023/10/01 09:21:54;;;;;;;14.43;5.68;;;;;;;;;;7362143;19;20023;-64
2023/10/01 09:24:39;;;;;;;10.52;5.75;;;;;;;;;;7386057;19;20048;-65
2023/10/01 09:27:18;;;;;;;11.45;5.65;;;;;;;;;;7364178;19;20078;-64
2023/10/01 09:29:44;;;;;;;13.52;6.35;;;;;;;;;;7367103;19;19995;-64
2023/10/01 09:32:13;;;;;;;10.40;5.80;;;;;;;;;;7365329;19;20366;-64
2023/10/01 09:34:47;;;;;;;14.23;6.30;;;;;;;;;;7364663;19;20003;-63
2023/10/01 09:37:33;;;;;;;14.02;6.38;;;;;;;;;;7365330;19;20392;-64
2023/10/01 09:40:04;;;;;;;12.95;6.32;;;;;;;;;;7365032;19;20034;-65
2023/10/01 09:42:33;;;;;;;;;;;;;;;;;;7386131;19;20376;-64
2023/10/01 09:45:09;;;;;;;10.45;6.13;;;;;;;;;;7364234;19;19929;-65
2023/10/01 09:47:35;;;;;;;10.73;6.15;;;;;;;;;;7364091;19;20476;-63
2023/10/01 09:50:04;;;;;;;11.10;6.05;;;;;;;;;;7363378;19;20076;-63
2023/10/01 09:52:48;;;;;;;11.13;5.82;;;;;;;;;;7365108;19;20457;-64
2023/10/01 09:55:26;;;;;;;12.02;5.88;;;;;;;;;;7364874;19;20002;-62
2023/10/01 09:57:58;;;;;;;13.68;5.93;;;;;;;;;;7367217;19;20019;-63
2023/10/01 10:00:42;;;;;;;12.05;5.90;;;;;;;;;;7387473;19;20011;-60
2023/10/01 10:03:12;;;;;;;13.45;6.75;;;;;;;;;;7364818;19;20109;-63
2023/10/01 10:05:40;;;;;;;11.20;5.80;;;;;;;;;;7366431;19;20058;-67
2023/10/01 10:08:15;;;;;;;9.57;5.65;;;;;;;;;;7367150;19;20308;-66
2023/10/01 10:10:49;;;;;;;11.23;6.47;;;;;;;;;;7364135;19;20086;-67
2023/10/01 10:13:33;;;;;;;10.75;6.38;;;;;;;;;;7364966;19;20011;-68
2023/10/01 10:16:00;;;;;;;13.00;6.47;;;;;;;;;;7363964;19;20041;-68
2023/10/01 10:18:25;;;;;;;12.98;6.55;;;;;;;;;;7388736;19;20038;-68
2023/10/01 10:21:03;;;;;;;11.07;6.32;;;;;;;;;;7366568;19;20118;-67
2023/10/01 10:23:31;;;;;;;12.32;6.85;;;;;;;;;;7372190;19;20492;-69
2023/10/01 10:26:35;;;;;;;10.02;5.88;;;;;;;;;;7372072;19;20007;-67
2023/10/01 10:29:01;;;;;;;11.88;6.15;;;;;;;;;;7373854;19;20520;-68
2023/10/01 10:31:32;;;;;;;12.63;6.80;;;;;;;;;;7373217;19;20011;-67
2023/10/01 10:34:24;;;;;;;11.95;5.70;;;;;;;;;;7373323;19;20034;-66
2023/10/01 10:36:50;;;;;;;12.43;6.28;;;;;;;;;;7374980;19;20018;-67
2023/10/01 10:39:50;;;;;;;12.45;6.45;;;;;;;;;;7396182;19;20087;-65
2023/10/01 10:42:27;;;;;;;11.77;5.78;;;;;;;;;;7372982;19;20014;-67
2023/10/01 10:45:21;;;;;;;12.45;5.97;;;;;;;;;;7372809;19;20380;-66
2023/10/01 10:47:58;;;;;;;12.75;6.10;;;;;;;;;;7372481;19;20369;-67
2023/10/01 10:50:50;;;;;;;10.77;5.45;;;;;;;;;;7374177;19;20010;-67
2023/10/01 10:53:22;;;;;;;9.85;5.68;;;;;;;;;;7372359;19;20014;-67
2023/10/01 10:56:07;;;;;;;12.82;6.15;;;;;;;;;;7371942;19;20010;-65
2023/10/01 10:58:37;;;;;;;10.32;5.78;;;;;;;;;;7373658;19;20011;-63
2023/10/01 11:03:57;;;;;;;9.63;5.18;;;;;;;;;;7372032;19;20121;-63
2023/10/01 11:06:39;;;;;;;12.00;5.78;;;;;;;;;;7395488;19;20003;-64
2023/10/01 11:09:22;;;;;;;9.82;5.57;;;;;;;;;;7373828;19;20022;-62
2023/10/01 11:11:49;;;;;;;13.05;5.68;;;;;;;;;;7373394;19;20115;-64
2023/10/01 11:14:17;;;;;;;12.88;6.25;;;;;;;;;;7372687;19;20097;-63
2023/10/01 11:16:44;;;;;;;12.57;6.18;;;;;;;;;;7373329;19;20463;-66
2023/10/01 11:19:14;;;;;;;11.70;5.93;;;;;;;;;;7373066;19;20027;-66
2023/10/01 11:22:00;;;;;;;11.98;5.72;;;;;;;;;;7372819;19;20007;-66
2023/10/01 11:24:33;;;;;;;12.40;6.15;;;;;;;;;;7393560;19;20070;-67
2023/10/01 11:27:43;;;;;;;13.85;6.00;;;;;;;;;;7374586;19;20030;-66
2023/10/01 11:30:13;;;;;;;12.70;6.45;;;;;;;;;;7374020;19;20002;-66
2023/10/01 11:33:01;;;;;;;11.55;6.10;;;;;;;;;;7369596;19;20077;-65
2023/10/01 11:35:41;;;;;;;11.02;5.70;;;;;;;;;;7371601;19;20002;-66
2023/10/01 11:38:13;;;;;;;11.77;5.97;;;;;;;;;;7373676;19;20041;-66
2023/10/01 11:43:35;;;;;;;11.93;6.40;;;;;;;;;;7372203;19;20035;-66
2023/10/01 11:46:19;;;;;;;10.45;5.82;;;;;;;;;;7371458;19;20006;-66
2023/10/01 11:48:56;;;;;;;12.43;5.68;;;;;;;;;;7370762;19;20017;-65
2023/10/01 11:51:48;;;;;;;14.80;6.90;;;;;;;;;;7376184;19;20014;-66
2023/10/01 11:54:52;;;;;;;14.35;6.90;;;;;;;;;;7364473;19;20006;-66
2023/10/01 11:57:25;;;;;;;12.65;5.82;;;;;;;;;;7387445;19;20102;-65
2023/10/01 11:59:56;;;;;;;12.20;6.38;;;;;;;;;;7366360;19;20014;-66
2023/10/01 12:02:31;;;;;;;12.40;6.25;;;;;;;;;;7364688;19;20010;-66
2023/10/01 12:04:59;;;;;;;13.07;6.32;;;;;;;;;;7366498;19;20096;-66
2023/10/01 12:07:27;;;;;;;15.68;6.55;;;;;;;;;;7365023;19;20022;-67
2023/10/01 12:09:55;;;;;;;12.10;6.15;;;;;;;;;;7368217;19;20477;-66
2023/10/01 12:12:27;;;;;;;13.65;5.65;;;;;;;;;;7387762;19;20009;-67
2023/10/01 12:14:53;;;;;;;13.77;6.72;;;;;;;;;;7365405;19;20095;-66
2023/10/01 12:17:28;;;;;;;12.00;6.15;;;;;;;;;;7365477;19;20035;-65
2023/10/01 12:20:01;;;;;;;10.63;5.25;;;;;;;;;;7367322;19;20002;-67
2023/10/01 12:22:29;;;;;;;10.65;5.28;;;;;;;;;;7364630;19;20017;-66
2023/10/01 12:24:58;;;;;;;11.75;6.07;;;;;;;;;;7366194;19;20018;-66
2023/10/01 12:27:37;;;;;;;9.50;4.82;;;;;;;;;;7386705;19;20168;-66
2023/10/01 12:30:32;;;;;;;11.38;5.63;;;;;;;;;;7367093;19;20799;-67
2023/10/01 12:33:00;;;;;;;11.77;6.03;;;;;;;;;;7364799;19;20022;-66
2023/10/01 12:35:29;;;;;;;12.30;5.50;;;;;;;;;;7364316;19;20006;-67
2023/10/01 12:40:35;;;;;;;11.88;5.80;;;;;;;;;;7366105;19;20307;-66
2023/10/01 12:45:50;;;;;;;13.55;6.25;;;;;;;;;;7365555;19;20023;-66
2023/10/01 12:48:20;;;;;;;10.90;5.15;;;;;;;;;;7386143;19;20006;-67
2023/10/01 12:51:00;;;;;;;10.38;5.90;;;;;;;;;;7364729;19;20015;-66
2023/10/01 12:53:27;;;;;;;11.80;5.82;;;;;;;;;;7363335;19;20006;-67
2023/10/01 12:55:52;;;;;;;10.60;5.63;;;;;;;;;;7366175;19;20030;-68
2023/10/01 12:58:29;;;;;;;11.35;5.72;;;;;;;;;;7370483;19;20644;-67
2023/10/01 13:00:56;;;;;;;11.85;6.03;;;;;;;;;;7374441;19;20010;-67
2023/10/01 13:03:23;;;;;;;10.75;5.32;;;;;;;;;;7387813;19;20023;-65
2023/10/01 13:05:51;;;;;;;11.07;5.72;;;;;;;;;;7365878;19;20006;-66
2023/10/01 13:08:27;;;;;;;10.25;5.45;;;;;;;;;;7364869;19;20011;-66
2023/10/01 13:10:59;;;;;;;11.00;6.00;;;;;;;;;;7367006;19;20010;-66
2023/10/01 13:13:30;;;;;;;10.93;5.85;;;;;;;;;;7365516;19;20082;-66
2023/10/01 13:16:00;;;;;;;10.60;5.20;;;;;;;;;;7365088;19;20010;-66
2023/10/01 13:18:31;;;;;;;;;;;;;;;;;;7389285;19;20006;-67
2023/10/01 13:23:28;;;;;;;12.07;5.90;;;;;;;;;;7367098;19;20512;-67
2023/10/01 13:26:06;;;;;;;10.63;5.50;;;;;;;;;;7368643;19;20097;-67
2023/10/01 13:28:46;;;;;;;13.80;5.43;;;;;;;;;;7370091;19;20082;-67
2023/10/01 13:34:09;;;;;;;11.05;5.28;;;;;;;;;;7366157;19;20239;-67
2023/10/01 13:36:46;;;;;;;9.55;5.20;;;;;;;;;;7366017;19;19999;-67
2023/10/01 14:08:45;;;;;;;11.43;5.43;;;;;;;;;;7374385;19;20034;-68
2023/10/01 14:11:13;;;;;;;10.88;5.78;;;;;;;;;;7374470;19;20002;-67
2023/10/01 14:13:41;;;;;;;13.60;6.20;;;;;;;;;;7371612;19;20014;-68
2023/10/01 14:16:40;;;;;;;12.55;6.28;;;;;;;;;;7370921;19;20411;-68
2023/10/01 14:19:13;;;;;;;11.82;5.93;;;;;;;;;;7373477;19;20063;-67
2023/10/01 14:21:39;;;;;;;12.77;5.68;;;;;;;;;;7373553;19;20003;-68
2023/10/01 14:24:24;;;;;;;13.10;5.68;;;;;;;;;;7393926;19;20013;-67
2023/10/01 14:26:51;;;;;;;12.70;5.35;;;;;;;;;;7373180;19;20011;-66
2023/10/01 14:29:22;;;;;;;13.63;5.95;;;;;;;;;;7373143;19;20011;-67
2023/10/01 14:31:53;;;;;;;13.90;6.10;;;;;;;;;;7373240;19;20362;-68
2023/10/01 14:34:20;;;;;;;12.48;5.97;;;;;;;;;;7372482;19;20010;-67
2023/10/01 14:36:51;;;;;;;13.10;6.22;;;;;;;;;;7364147;19;20011;-67
2023/10/01 14:39:18;;;;;;;10.98;5.40;;;;;;;;;;7390090;19;20372;-68
2023/10/01 14:41:50;;;;;;;12.57;5.97;;;;;;;;;;7368275;19;20010;-67
2023/10/01 14:44:16;;;;;;;12.77;5.82;;;;;;;;;;7368032;19;20002;-66
2023/10/01 14:46:47;;;;;;;10.35;5.10;;;;;;;;;;7368321;19;20023;-67
2023/10/01 14:49:13;;;;;;;11.40;5.32;;;;;;;;;;7371318;19;20021;-67
2023/10/01 14:51:48;;;;;;;13.30;5.43;;;;;;;;;;7365622;19;20512;-67
2023/10/01 14:54:18;;;;;;;11.75;5.72;;;;;;;;;;7390971;19;19994;-66
2023/10/01 14:56:54;;;;;;;10.50;5.63;;;;;;;;;;7369710;19;20517;-68
2023/10/01 14:59:21;;;;;;;12.68;5.93;;;;;;;;;;7369866;19;20010;-66
2023/10/01 15:01:46;;;;;;;12.50;5.60;;;;;;;;;;7368883;19;20013;-68
2023/10/01 15:04:20;;;;;;;11.55;5.68;;;;;;;;;;7369248;19;20360;-66
2023/10/01 15:06:58;;;;;;;12.75;5.68;;;;;;;;;;7369488;19;20017;-67
2023/10/01 15:09:25;;;;;;;12.20;5.72;;;;;;;;;;7389673;19;20023;-65
2023/10/01 15:11:54;;;;;;;13.40;5.65;;;;;;;;;;7368691;19;20034;-66
2023/10/01 15:14:26;;;;;;;11.48;5.57;;;;;;;;;;7366557;19;20018;-66
2023/10/01 15:16:53;;;;;;;13.02;5.25;;;;;;;;;;7368822;19;20013;-66
2023/10/01 15:19:18;;;;;;;12.25;5.38;;;;;;;;;;7368594;19;20118;-65
2023/10/01 15:21:48;;;;;;;13.00;5.70;;;;;;;;;;7366265;19;20392;-65
2023/10/01 15:24:13;;;;;;;12.48;5.57;;;;;;;;;;7388402;19;19998;-66
2023/10/01 15:26:45;;;;;;;15.20;6.00;;;;;;;;;;7368835;19;20013;-66
2023/10/01 15:29:12;;;;;;;9.82;5.00;;;;;;;;;;7369232;19;20038;-67
2023/10/01 15:31:37;;;;;;;10.05;5.07;;;;;;;;;;7367364;19;20740;-67
2023/10/01 15:34:18;;;;;;;12.73;5.97;;;;;;;;;;7367512;19;20139;-68
2023/10/01 15:36:47;;;;;;;12.73;5.95;;;;;;;;;;7368580;19;20016;-67
2023/10/01 15:44:47;;;;;;;13.32;5.53;;;;;;;;;;7366991;19;20082;-66
2023/10/01 15:47:25;;;;;;;10.98;5.30;;;;;;;;;;7368423;19;20465;-66
2023/10/01 15:49:55;;;;;;;11.73;5.38;;;;;;;;;;7367287;19;20003;-66
2023/10/01 15:52:22;;;;;;;12.38;5.82;;;;;;;;;;7366751;19;20027;-67
2023/10/01 15:54:47;;;;;;;12.93;5.93;;;;;;;;;;7367362;19;20024;-67
2023/10/01 15:57:17;;;;;;;10.90;5.55;;;;;;;;;;7390402;19;20069;-66
2023/10/01 15:59:42;;;;;;;12.63;5.57;;;;;;;;;;7366179;19;20003;-65
2023/10/01 16:02:18;;;;;;;12.38;5.47;;;;;;;;;;7367145;19;20033;-66
2023/10/01 16:04:44;;;;;;;14.10;6.10;;;;;;;;;;7367205;19;20017;-66
2023/10/01 16:07:11;;;;;;;10.88;5.40;;;;;;;;;;7367676;19;20044;-66
2023/10/01 16:09:39;;;;;;;11.57;5.38;;;;;;;;;;7366556;19;20010;-65
2023/10/01 16:12:06;;;;;;;14.13;5.68;;;;;;;;;;7388131;19;20014;-66
2023/10/01 16:14:33;;;;;;;13.02;5.90;;;;;;;;;;7364325;19;20013;-66
2023/10/01 16:17:15;;;;;;;13.00;5.60;;;;;;;;;;7363584;19;20018;-69
2023/10/01 16:19:44;;;;;;;12.48;5.30;;;;;;;;;;7365044;19;20563;-68
2023/10/01 16:22:09;;;;;;;13.05;6.05;;;;;;;;;;7363282;19;20011;-69
2023/10/01 16:24:39;;;;;;;14.13;6.15;;;;;;;;;;7365097;19;20616;-68
2023/10/01 16:27:06;;;;;;;12.32;5.75;;;;;;;;;;7385047;19;20364;-69